createdAt,value
2023-05-18T03:15:40.809Z,10.81
2023-05-18T03:17:06.066Z,10.84
2023-05-18T03:18:28.382Z,10.86
2023-05-18T03:19:51.590Z,10.85
2023-05-18T03:21:13.890Z,10.87
2023-05-18T03:22:36.149Z,10.89
2023-05-18T03:23:57.118Z,10.90
2023-05-18T03:25:19.792Z,10.91
2023-05-18T03:26:44.360Z,10.93
2023-05-18T03:28:07.196Z,10.94
2023-05-18T03:29:31.496Z,10.96
2023-05-18T03:30:59.432Z,10.96
2023-05-18T03:32:21.278Z,10.98
2023-05-18T03:33:43.538Z,10.99
2023-05-18T03:35:06.461Z,11.02
2023-05-18T03:36:29.362Z,11.01
2023-05-18T03:37:50.586Z,11.02
2023-05-18T03:39:13.220Z,11.04
2023-05-18T03:40:34.856Z,11.06
2023-05-18T03:41:57.347Z,11.07
2023-05-18T03:43:19.880Z,11.09
2023-05-18T03:44:41.575Z,11.10
2023-05-18T03:46:06.409Z,11.12
2023-05-18T03:47:27.505Z,11.14
2023-05-18T03:48:50.067Z,11.17
2023-05-18T03:50:16.820Z,11.17
2023-05-18T03:51:38.755Z,11.20
2023-05-18T03:53:01.299Z,11.23
2023-05-18T03:54:22.591Z,11.25
2023-05-18T03:55:47.100Z,11.28
2023-05-18T03:57:08.200Z,11.32
2023-05-18T03:58:30.310Z,11.32
2023-05-18T03:59:52.874Z,11.37
2023-05-18T04:01:19.043Z,11.39
2023-05-18T04:02:40.761Z,11.42
2023-05-18T04:04:03.228Z,11.45
2023-05-18T04:05:24.518Z,11.49
2023-05-18T04:06:47.333Z,11.50
2023-05-18T04:08:09.010Z,11.55
2023-05-18T04:09:33.975Z,11.57
2023-05-18T04:10:55.153Z,11.60
2023-05-18T04:12:17.145Z,11.61
2023-05-18T04:13:42.091Z,11.64
2023-05-18T04:15:04.605Z,11.67
2023-05-18T04:16:29.257Z,11.68
2023-05-18T04:17:53.967Z,11.69
2023-05-18T04:19:16.309Z,11.70
2023-05-18T04:20:38.276Z,11.74
2023-05-18T04:22:00.198Z,11.76
2023-05-18T04:23:21.556Z,11.78
2023-05-18T04:24:45.864Z,11.81
2023-05-18T04:26:09.204Z,11.85
2023-05-18T04:27:30.888Z,11.87
2023-05-18T04:28:53.348Z,11.88
2023-05-18T04:30:14.661Z,11.92
2023-05-18T04:31:46.480Z,11.97
2023-05-18T04:33:08.798Z,11.98
2023-05-18T04:34:31.506Z,12.00
2023-05-18T04:37:33.539Z,12.04
2023-05-18T04:39:26.016Z,12.09
2023-05-18T04:40:50.273Z,12.04
2023-05-18T04:42:14.753Z,12.17
2023-05-18T04:43:38.549Z,12.20
2023-05-18T04:45:00.446Z,12.24
2023-05-18T04:46:24.142Z,12.27
2023-05-18T04:47:53.918Z,12.31
2023-05-18T04:49:16.272Z,12.34
2023-05-18T04:50:42.242Z,12.36
2023-05-18T04:52:06.760Z,12.41
2023-05-18T04:53:28.869Z,12.43
2023-05-18T04:54:50.040Z,12.45
2023-05-18T04:56:13.882Z,12.49
2023-05-18T04:57:35.197Z,12.52
2023-05-18T04:59:02.338Z,12.53
2023-05-18T05:00:26.441Z,12.58
2023-05-18T05:01:49.298Z,12.60
2023-05-18T05:03:11.970Z,12.64
2023-05-18T05:04:38.429Z,12.70
2023-05-18T05:05:59.933Z,12.76
2023-05-18T05:07:21.954Z,12.81
2023-05-18T05:08:44.321Z,12.86
2023-05-18T05:10:08.214Z,12.89
2023-05-18T05:11:29.652Z,12.95
2023-05-18T05:12:53.459Z,13.01
2023-05-18T05:14:14.259Z,13.06
2023-05-18T05:15:37.472Z,13.09
2023-05-18T05:16:58.711Z,13.14
2023-05-18T05:18:22.478Z,13.20
2023-05-18T05:19:44.798Z,13.24
2023-05-18T05:21:07.530Z,13.27
2023-05-18T05:22:29.423Z,13.37
2023-05-18T05:23:55.134Z,13.42
2023-05-18T05:25:19.144Z,13.48
2023-05-18T05:26:41.465Z,13.53
2023-05-18T05:28:03.855Z,13.60
2023-05-18T05:29:26.588Z,13.64
2023-05-18T05:30:51.795Z,13.71
2023-05-18T05:32:13.453Z,13.79
2023-05-18T05:33:40.101Z,13.85
2023-05-18T05:35:02.464Z,13.91
2023-05-18T05:36:23.762Z,13.96
2023-05-18T05:37:47.349Z,14.04
2023-05-18T05:39:09.807Z,14.11
2023-05-18T05:40:39.799Z,14.18
2023-05-18T05:42:01.489Z,14.26
2023-05-18T05:43:23.758Z,14.35
2023-05-18T05:44:45.034Z,14.44
2023-05-18T05:46:07.334Z,14.54
2023-05-18T05:47:42.651Z,14.64
2023-05-18T05:49:07.419Z,14.82
2023-05-18T05:50:30.116Z,14.96
2023-05-18T05:51:58.089Z,15.08
2023-05-18T05:53:23.634Z,15.21
2023-05-18T05:54:46.242Z,15.33
2023-05-18T05:56:08.586Z,15.46
2023-05-18T05:57:34.169Z,15.59
2023-05-18T05:58:58.692Z,15.75
2023-05-18T06:00:27.760Z,15.89
2023-05-18T06:01:55.615Z,16.04
2023-05-18T06:03:18.005Z,16.19
2023-05-18T06:04:48.170Z,16.30
2023-05-18T06:06:12.216Z,16.46
2023-05-18T06:07:34.806Z,16.62
2023-05-18T06:08:57.223Z,16.76
2023-05-18T06:10:19.199Z,16.91
2023-05-18T06:11:41.625Z,17.04
2023-05-18T06:13:05.650Z,17.14
2023-05-18T06:14:38.095Z,17.23
2023-05-18T06:16:00.423Z,17.29
2023-05-18T06:17:33.227Z,17.35
2023-05-18T06:18:55.238Z,17.40
2023-05-18T06:20:21.840Z,17.44
2023-05-18T06:21:44.266Z,17.48
2023-05-18T06:23:06.208Z,17.51
2023-05-18T06:24:39.202Z,17.48
2023-05-18T06:26:22.269Z,17.57
2023-05-18T06:28:00.864Z,17.65
2023-05-18T06:29:45.263Z,17.77
2023-05-18T06:31:30.488Z,17.87
2023-05-18T06:33:09.558Z,17.95
2023-05-18T06:34:32.506Z,18.02
2023-05-18T06:35:56.202Z,18.08
2023-05-18T06:37:18.220Z,18.13
2023-05-18T06:38:40.958Z,18.17
2023-05-18T06:40:03.812Z,18.22
2023-05-18T06:41:27.010Z,18.28
2023-05-18T06:43:18.649Z,18.30
2023-05-18T06:45:06.586Z,18.34
2023-05-18T06:46:46.152Z,18.37
2023-05-18T06:48:15.590Z,18.42
2023-05-18T06:49:40.390Z,18.49
2023-05-18T06:51:11.376Z,18.55
2023-05-18T06:52:33.271Z,18.62
2023-05-18T06:53:55.469Z,18.69
2023-05-18T06:55:18.636Z,18.79
2023-05-18T06:56:42.065Z,18.87
2023-05-18T06:58:06.336Z,18.96
2023-05-18T06:59:29.015Z,19.03
2023-05-18T07:00:51.340Z,19.10
2023-05-18T07:02:13.827Z,19.14
2023-05-18T07:03:37.696Z,19.19
2023-05-18T07:05:01.461Z,19.23
2023-05-18T07:06:25.551Z,19.26
2023-05-18T07:07:47.918Z,19.31
2023-05-18T07:09:10.218Z,19.38
2023-05-18T07:10:32.635Z,19.49
2023-05-18T07:11:54.829Z,19.61
2023-05-18T07:13:17.055Z,19.72
2023-05-18T07:14:39.161Z,19.84
2023-05-18T07:16:01.347Z,19.96
2023-05-18T07:17:24.213Z,20.09
2023-05-18T07:18:46.582Z,20.26
2023-05-18T07:20:10.363Z,20.43
2023-05-18T07:21:33.063Z,20.62
2023-05-18T07:22:56.300Z,20.83
2023-05-18T07:24:18.964Z,21.05
2023-05-18T07:25:41.369Z,21.27
2023-05-18T07:27:04.161Z,21.49
2023-05-18T07:28:26.522Z,21.70
2023-05-18T07:29:48.597Z,21.86
2023-05-18T07:31:10.814Z,22.00
2023-05-18T07:32:33.264Z,22.12
2023-05-18T07:33:55.670Z,22.26
2023-05-18T07:35:19.642Z,22.39
2023-05-18T07:36:43.167Z,22.50
2023-05-18T07:38:04.295Z,22.64
2023-05-18T07:39:29.542Z,22.85
2023-05-18T07:40:51.757Z,23.09
2023-05-18T07:42:19.473Z,23.36
2023-05-18T07:43:43.717Z,23.77
2023-05-18T07:45:05.618Z,24.04
2023-05-18T07:46:32.791Z,24.23
2023-05-18T07:47:55.613Z,24.56
2023-05-18T07:49:17.908Z,24.87
2023-05-18T07:50:40.337Z,25.24
2023-05-18T07:52:04.150Z,25.59
2023-05-18T07:53:28.877Z,26.00
2023-05-18T07:54:51.267Z,26.48
2023-05-18T07:56:15.398Z,27.10
2023-05-18T07:57:37.700Z,27.72
2023-05-18T07:59:02.957Z,28.45
2023-05-18T08:00:28.235Z,29.15
2023-05-18T08:01:50.467Z,29.82
2023-05-18T08:03:12.770Z,30.32
2023-05-18T08:04:37.318Z,30.62
2023-05-18T08:06:01.974Z,31.02
2023-05-18T08:07:30.194Z,31.26
2023-05-18T08:08:52.408Z,31.48
2023-05-18T08:10:14.462Z,31.71
2023-05-18T08:11:36.566Z,31.94
2023-05-18T08:12:58.588Z,32.28
2023-05-18T08:14:21.052Z,32.72
2023-05-18T08:15:50.903Z,33.25
2023-05-18T08:17:19.773Z,34.01
2023-05-18T08:18:43.817Z,34.76
2023-05-18T08:20:08.455Z,36.79
2023-05-18T08:21:30.977Z,37.61
2023-05-18T08:22:54.718Z,38.48
2023-05-18T08:24:17.256Z,38.60
2023-05-18T08:25:45.334Z,38.79
2023-05-18T08:27:10.081Z,39.16
2023-05-18T08:28:41.807Z,40.22
2023-05-18T08:30:06.277Z,41.14
2023-05-18T08:31:28.535Z,42.80
2023-05-18T08:32:52.705Z,44.23
2023-05-18T08:34:20.557Z,45.07
2023-05-18T08:36:07.993Z,45.88
2023-05-18T08:37:31.380Z,46.74
2023-05-18T08:38:55.389Z,47.50
2023-05-18T08:41:50.784Z,49.07
2023-05-18T08:43:23.450Z,49.71
2023-05-18T08:44:51.732Z,50.15
2023-05-18T08:46:21.923Z,50.34
2023-05-18T08:47:44.884Z,49.42
2023-05-18T08:49:07.862Z,49.38
2023-05-18T08:50:33.511Z,50.63
2023-05-18T08:51:58.564Z,51.43
2023-05-18T08:53:27.597Z,50.55
2023-05-18T08:54:54.921Z,51.50
2023-05-18T08:56:18.713Z,52.64
2023-05-18T08:57:45.059Z,53.46
2023-05-18T08:59:10.638Z,54.68
2023-05-18T09:00:34.886Z,55.99
2023-05-18T09:01:58.918Z,56.41
2023-05-18T09:03:26.195Z,56.41
2023-05-18T09:04:59.335Z,56.63
2023-05-18T09:06:28.820Z,56.19
2023-05-18T09:08:11.723Z,54.25
2023-05-18T09:09:38.856Z,53.24
2023-05-18T09:11:14.000Z,53.10
2023-05-18T09:13:05.344Z,53.05
2023-05-18T09:14:50.299Z,52.07
2023-05-18T09:16:16.325Z,50.93
2023-05-18T09:18:10.686Z,49.64
2023-05-18T09:20:02.454Z,48.48
2023-05-18T09:21:25.684Z,47.10
2023-05-18T09:26:05.287Z,43.50
2023-05-18T09:28:47.807Z,42.92
2023-05-18T09:30:29.164Z,42.71
2023-05-18T09:31:52.149Z,42.46
2023-05-18T09:33:19.276Z,42.36
2023-05-18T09:34:46.501Z,41.90
2023-05-18T09:36:29.475Z,41.33
2023-05-18T09:37:52.605Z,40.89
2023-05-18T09:39:37.279Z,40.81
2023-05-18T09:41:05.037Z,41.03
2023-05-18T09:42:37.967Z,40.89
2023-05-18T09:44:05.274Z,41.32
2023-05-18T09:45:28.857Z,41.30
2023-05-18T09:47:02.300Z,42.07
2023-05-18T09:48:25.569Z,43.28
2023-05-18T09:49:49.369Z,44.11
2023-05-18T09:51:17.023Z,45.05
2023-05-18T09:53:10.910Z,46.23
2023-05-18T09:54:34.673Z,47.77
2023-05-18T09:55:58.597Z,49.30
2023-05-18T09:57:23.789Z,50.50
2023-05-18T09:58:49.797Z,50.63
2023-05-18T10:00:17.245Z,50.17
2023-05-18T10:01:41.730Z,49.69
2023-05-18T10:03:06.479Z,49.08
2023-05-18T10:04:41.324Z,49.53
2023-05-18T10:06:07.029Z,50.04
2023-05-18T10:07:29.166Z,49.56
2023-05-18T10:08:53.918Z,49.22
2023-05-18T10:10:20.311Z,48.96
2023-05-18T10:11:44.802Z,48.66
2023-05-18T10:13:59.259Z,47.76
2023-05-18T10:15:23.973Z,46.01
2023-05-18T10:16:46.564Z,45.61
2023-05-18T10:18:09.738Z,45.59
2023-05-18T10:19:37.249Z,45.33
2023-05-18T10:21:01.724Z,44.88
2023-05-18T10:22:24.831Z,44.84
2023-05-18T10:23:49.801Z,44.43
2023-05-18T10:25:13.686Z,43.37
2023-05-18T10:26:45.723Z,42.81
2023-05-18T10:28:09.164Z,41.88
2023-05-18T10:29:38.037Z,41.20
2023-05-18T10:31:01.774Z,41.04
2023-05-18T10:32:26.942Z,41.38
2023-05-18T10:33:53.277Z,41.06
2023-05-18T10:35:19.585Z,40.97
2023-05-18T10:36:43.104Z,42.19
2023-05-18T10:38:07.589Z,42.95
2023-05-18T10:39:35.122Z,42.14
2023-05-18T10:41:00.430Z,42.15
2023-05-18T10:42:27.912Z,42.27
2023-05-18T10:43:51.245Z,41.97
2023-05-18T10:45:17.513Z,41.72
2023-05-18T10:47:22.579Z,41.15
2023-05-18T10:48:52.071Z,40.81
2023-05-18T10:50:15.344Z,40.08
2023-05-18T10:51:39.222Z,39.45
2023-05-18T10:53:02.198Z,38.78
2023-05-18T10:54:25.671Z,38.04
2023-05-18T10:55:49.886Z,37.43
2023-05-18T10:57:43.454Z,36.78
2023-05-18T10:59:10.540Z,35.88
2023-05-18T11:00:38.545Z,35.40
2023-05-18T11:02:03.687Z,34.79
2023-05-18T11:03:27.300Z,34.22
2023-05-18T11:04:53.392Z,33.60
2023-05-18T11:06:24.899Z,33.07
2023-05-18T11:07:47.707Z,32.38
2023-05-18T11:09:12.970Z,31.87
2023-05-18T11:10:37.355Z,31.29
2023-05-18T11:12:00.680Z,30.73
2023-05-18T11:13:32.252Z,30.19
2023-05-18T11:15:03.477Z,29.55
2023-05-18T11:16:53.296Z,28.84
2023-05-18T11:18:15.668Z,28.32
2023-05-18T11:20:19.115Z,27.62
2023-05-18T11:21:56.107Z,26.94
2023-05-18T11:23:29.350Z,26.47
2023-05-18T11:24:57.206Z,26.08
2023-05-18T11:26:19.412Z,25.60
2023-05-18T11:27:48.211Z,25.29
2023-05-18T11:29:22.394Z,24.94
2023-05-18T11:30:52.753Z,24.60
2023-05-18T11:32:30.437Z,24.19
2023-05-18T11:33:53.594Z,23.91
2023-05-18T11:35:25.039Z,23.56
2023-05-18T11:36:47.544Z,23.25
2023-05-18T11:38:09.892Z,23.04
2023-05-18T11:39:34.802Z,22.80
2023-05-18T11:41:01.106Z,22.60
2023-05-18T11:42:24.385Z,22.42
2023-05-18T11:43:46.081Z,22.25
2023-05-18T11:45:09.848Z,22.11
2023-05-18T11:46:31.118Z,21.93
2023-05-18T11:47:58.611Z,21.78
2023-05-18T11:49:22.444Z,21.63
2023-05-18T11:50:51.602Z,21.46
2023-05-18T11:52:21.412Z,21.42
2023-05-18T11:53:42.668Z,21.26
2023-05-18T11:55:07.664Z,21.15
2023-05-18T11:56:33.857Z,20.95
2023-05-18T11:57:56.370Z,20.88
2023-05-18T11:59:20.530Z,20.73
2023-05-18T12:00:59.023Z,20.61
2023-05-18T12:15:27.820Z,19.64
2023-05-18T12:19:09.374Z,19.48
2023-05-18T12:20:45.045Z,19.34
2023-05-18T12:22:12.395Z,19.39
2023-05-18T12:23:39.936Z,19.31
2023-05-18T12:25:02.325Z,19.31
2023-05-18T12:26:26.103Z,19.27
2023-05-18T12:28:05.016Z,19.25
2023-05-18T12:29:27.570Z,19.30
2023-05-18T12:30:50.204Z,19.29
2023-05-18T12:32:14.618Z,19.25
2023-05-18T12:33:37.119Z,19.27
2023-05-18T12:35:06.035Z,19.23
2023-05-18T12:36:28.502Z,19.18
2023-05-18T12:37:51.700Z,19.21
2023-05-18T12:39:21.068Z,19.17
2023-05-18T12:40:48.891Z,19.10
2023-05-18T12:42:13.524Z,19.08
2023-05-18T12:43:36.115Z,19.07
2023-05-18T12:44:58.455Z,19.06
2023-05-18T12:46:24.969Z,19.06
2023-05-18T12:47:47.606Z,19.01
2023-05-18T12:49:09.910Z,19.01
2023-05-18T12:50:32.549Z,18.94
2023-05-18T13:00:22.529Z,18.99
2023-05-18T13:01:45.221Z,19.01
2023-05-18T13:03:14.872Z,19.03
2023-05-18T13:04:46.261Z,19.04
2023-05-18T13:06:14.168Z,19.04
2023-05-18T13:07:40.804Z,19.08
2023-05-18T13:09:03.289Z,19.11
2023-05-18T13:10:24.894Z,19.06
2023-05-18T13:12:06.344Z,19.09
2023-05-18T13:15:24.857Z,19.07
2023-05-18T13:17:09.937Z,19.02
2023-05-18T13:18:50.446Z,19.09
2023-05-18T13:20:42.072Z,19.13
2023-05-18T13:22:07.718Z,19.15
2023-05-18T13:23:53.782Z,19.14
2023-05-18T13:25:34.292Z,19.13
2023-05-18T13:26:56.382Z,19.16
2023-05-18T13:28:21.851Z,19.17
2023-05-18T13:29:46.406Z,19.17
2023-05-18T13:31:11.579Z,19.19
2023-05-18T13:32:35.430Z,19.20
2023-05-18T13:33:57.646Z,19.19
2023-05-18T13:35:18.818Z,19.19
2023-05-18T13:36:41.202Z,19.19
2023-05-18T13:38:03.422Z,19.20
2023-05-18T13:39:25.650Z,19.22
2023-05-18T13:40:47.795Z,19.23
2023-05-18T13:42:08.940Z,19.27
2023-05-18T13:43:31.301Z,19.29
2023-05-18T13:44:53.740Z,19.32
2023-05-18T13:46:18.959Z,19.36
2023-05-18T13:47:41.444Z,19.37
2023-05-18T13:49:03.724Z,19.36
2023-05-18T13:50:27.342Z,19.45
2023-05-18T13:51:49.953Z,19.46
2023-05-18T13:53:12.334Z,19.46
2023-05-18T13:54:33.875Z,19.42
2023-05-18T13:55:56.353Z,19.45
2023-05-18T13:57:18.663Z,19.47
2023-05-18T13:58:42.048Z,19.47
2023-05-18T14:00:07.215Z,19.47
2023-05-18T14:01:38.403Z,19.44
2023-05-18T14:03:00.881Z,19.45
2023-05-18T14:04:22.905Z,19.47
2023-05-18T14:05:45.277Z,19.44
2023-05-18T14:07:08.055Z,19.45
2023-05-18T14:08:30.504Z,19.47
2023-05-18T14:09:54.346Z,19.49
2023-05-18T14:11:18.670Z,19.51
2023-05-18T14:12:42.787Z,19.53
2023-05-18T14:14:05.196Z,19.54
2023-05-18T14:15:30.885Z,19.54
2023-05-18T14:16:55.238Z,19.56
2023-05-18T14:18:17.869Z,19.58
2023-05-18T14:19:40.170Z,19.60
2023-05-18T14:21:02.463Z,19.56
2023-05-18T14:22:26.437Z,19.57
2023-05-18T14:23:49.004Z,19.58
2023-05-18T14:25:10.684Z,19.63
2023-05-18T14:26:32.929Z,19.59
2023-05-18T14:27:55.166Z,19.66
2023-05-18T14:29:17.241Z,19.72
2023-05-18T14:30:39.455Z,19.75
2023-05-18T14:32:01.903Z,19.78
2023-05-18T14:33:24.219Z,19.81
2023-05-18T14:34:52.172Z,19.86
2023-05-18T14:36:14.259Z,19.89
2023-05-18T14:37:37.007Z,19.97
2023-05-18T14:38:59.335Z,20.03
2023-05-18T14:40:21.676Z,20.11
2023-05-18T14:41:48.187Z,20.17
2023-05-18T14:43:10.271Z,20.26
2023-05-18T14:44:32.260Z,20.35
2023-05-18T14:46:07.354Z,20.40
2023-05-18T14:47:31.900Z,20.43
2023-05-18T14:48:54.230Z,20.45
2023-05-18T14:50:16.725Z,20.45
2023-05-18T14:51:38.199Z,20.47
2023-05-18T14:53:00.557Z,20.47
2023-05-18T14:54:22.578Z,20.47
2023-05-18T14:55:45.156Z,20.45
2023-05-18T14:57:10.310Z,20.46
2023-05-18T14:58:32.380Z,20.44
2023-05-18T14:59:55.328Z,20.41
2023-05-18T15:01:19.779Z,20.35
2023-05-18T15:02:46.754Z,20.33
2023-05-18T15:04:10.799Z,20.23
2023-05-18T15:05:33.142Z,20.18
2023-05-18T15:06:55.075Z,20.13
2023-05-18T15:08:17.629Z,20.06
2023-05-18T15:09:40.162Z,20.01
2023-05-18T15:11:02.056Z,20.03
2023-05-18T15:12:27.983Z,20.07
2023-05-18T15:13:50.571Z,20.12
2023-05-18T15:15:13.040Z,20.17
2023-05-18T15:16:35.361Z,20.23
2023-05-18T15:18:02.311Z,20.28
2023-05-18T15:19:30.460Z,20.29
2023-05-18T15:20:55.441Z,20.32
2023-05-18T15:22:17.926Z,20.39
2023-05-18T15:23:40.082Z,20.44
2023-05-18T15:25:07.763Z,20.46
2023-05-18T15:26:29.862Z,20.40
2023-05-18T15:27:53.090Z,20.38
2023-05-18T15:29:15.275Z,20.31
2023-05-18T15:30:37.673Z,20.25
2023-05-18T15:31:59.849Z,20.22
2023-05-18T15:33:31.378Z,20.13
2023-05-18T15:34:57.548Z,20.10
2023-05-18T15:37:58.448Z,19.98
2023-05-18T15:39:27.844Z,19.96
2023-05-18T15:40:59.185Z,19.93
2023-05-18T15:42:24.073Z,19.95
2023-05-18T15:43:51.969Z,19.97
2023-05-18T15:45:17.390Z,20.01
2023-05-18T15:46:39.430Z,20.04
2023-05-18T15:48:01.754Z,20.06
2023-05-18T15:49:25.694Z,20.04
2023-05-18T15:50:46.718Z,20.00
2023-05-18T15:52:12.402Z,19.97
2023-05-18T15:53:34.791Z,20.00
2023-05-18T15:54:59.900Z,20.04
2023-05-18T15:56:22.337Z,20.09
2023-05-18T15:57:44.625Z,20.13
2023-05-18T15:59:08.477Z,20.16
2023-05-18T16:00:33.540Z,20.16
2023-05-18T16:01:56.156Z,20.13
2023-05-18T16:03:19.313Z,20.14
2023-05-18T16:04:41.831Z,20.15
2023-05-18T16:06:03.884Z,20.20
2023-05-18T16:07:26.572Z,20.21
2023-05-18T16:08:48.513Z,20.21
2023-05-18T16:10:12.855Z,20.22
2023-05-18T16:11:36.213Z,20.17
2023-05-18T16:13:04.610Z,20.17
2023-05-18T16:14:32.878Z,20.13
2023-05-18T16:15:54.959Z,20.11
2023-05-18T16:17:17.385Z,20.07
2023-05-18T16:18:38.748Z,20.00
2023-05-18T16:20:04.893Z,19.91
2023-05-18T16:21:27.133Z,19.85
2023-05-18T16:22:53.728Z,19.78
2023-05-18T16:24:27.204Z,19.65
2023-05-18T16:25:49.603Z,19.62
2023-05-18T16:27:11.682Z,19.58
2023-05-18T16:28:33.951Z,19.50
2023-05-18T16:29:58.800Z,19.43
2023-05-18T16:31:21.225Z,19.36
2023-05-18T16:32:44.715Z,19.31
2023-05-18T16:34:06.856Z,19.25
2023-05-18T16:35:47.073Z,19.18
2023-05-18T16:37:20.170Z,19.09
2023-05-18T16:38:42.509Z,18.98
2023-05-18T16:40:05.712Z,18.91
2023-05-18T16:41:30.845Z,18.82
2023-05-18T16:43:11.293Z,18.72
2023-05-18T16:49:47.071Z,18.30
2023-05-18T16:51:50.085Z,18.21
2023-05-18T16:53:25.635Z,18.17
2023-05-18T16:55:08.359Z,18.20
2023-05-18T16:59:52.477Z,18.05
2023-05-18T17:02:45.896Z,18.09
2023-05-18T17:12:05.987Z,17.85
2023-05-18T17:13:38.437Z,17.87
2023-05-18T17:16:43.250Z,17.78
2023-05-18T17:18:06.254Z,17.81
2023-05-18T17:19:28.528Z,17.75
2023-05-18T17:20:51.078Z,17.78
2023-05-18T17:22:13.622Z,17.78
2023-05-18T17:23:35.756Z,17.76
2023-05-18T17:24:59.860Z,17.76
2023-05-18T17:26:22.404Z,17.73
2023-05-18T17:27:44.765Z,17.75
2023-05-18T17:29:09.768Z,17.74
2023-05-18T17:31:14.839Z,17.72
2023-05-18T17:32:40.900Z,17.67
2023-05-18T17:34:03.156Z,17.71
2023-05-18T17:35:31.864Z,17.69
2023-05-18T17:37:02.702Z,17.69
2023-05-18T17:38:25.253Z,17.59
2023-05-18T17:39:49.260Z,17.67
2023-05-18T17:41:11.755Z,17.62
2023-05-18T17:42:34.069Z,17.63
2023-05-18T17:43:56.702Z,17.59
2023-05-18T17:45:37.741Z,17.59
2023-05-18T17:47:03.054Z,17.57
2023-05-18T17:48:35.131Z,17.51
2023-05-18T17:50:00.133Z,17.49
2023-05-18T17:58:28.927Z,17.29
2023-05-18T18:00:52.920Z,17.27
2023-05-18T18:03:25.921Z,17.09
2023-05-18T18:04:55.131Z,17.14
2023-05-18T18:06:47.047Z,17.09
2023-05-18T18:08:38.109Z,17.01
2023-05-18T18:10:38.886Z,16.96
2023-05-18T18:15:03.170Z,17.00
2023-05-18T18:18:39.415Z,16.89
2023-05-18T18:20:08.733Z,16.88
2023-05-18T18:22:08.455Z,16.82
2023-05-18T18:23:34.512Z,16.79
2023-05-18T18:24:58.417Z,16.81
2023-05-18T18:26:27.408Z,16.72
2023-05-18T18:28:25.478Z,16.67
2023-05-18T18:29:53.071Z,16.63
2023-05-18T18:31:21.514Z,16.66
2023-05-18T18:32:52.937Z,16.68
2023-05-18T18:34:31.976Z,16.62
2023-05-18T18:35:59.392Z,16.62
2023-05-18T18:37:24.240Z,16.60
2023-05-18T18:38:47.017Z,16.58
2023-05-18T18:40:17.413Z,16.55
2023-05-18T18:41:39.510Z,16.50
2023-05-18T18:43:03.253Z,16.47
2023-05-18T18:44:28.205Z,16.45
2023-05-18T18:45:50.784Z,16.41
2023-05-18T18:47:12.242Z,16.34
2023-05-18T18:49:06.863Z,16.30
2023-05-18T18:50:31.294Z,16.16
2023-05-18T18:52:13.106Z,16.13
2023-05-18T18:53:44.353Z,16.15
2023-05-18T18:55:10.502Z,16.07
2023-05-18T18:56:33.107Z,16.04
2023-05-18T18:57:55.784Z,16.00
2023-05-18T18:59:17.991Z,15.94
2023-05-18T19:00:39.936Z,15.87
2023-05-18T19:02:02.270Z,15.85
2023-05-18T19:03:24.449Z,15.81
2023-05-18T19:04:46.944Z,15.77
2023-05-18T19:06:09.512Z,15.72
2023-05-18T19:07:33.970Z,15.69
2023-05-18T19:09:01.232Z,15.63
2023-05-18T19:10:48.574Z,15.55
2023-05-18T19:12:11.193Z,15.54
2023-05-18T19:13:33.299Z,15.50
2023-05-18T19:14:58.893Z,15.46
2023-05-18T19:16:21.739Z,15.44
2023-05-18T19:17:48.391Z,15.38
2023-05-18T19:19:10.968Z,15.37
2023-05-18T19:20:33.040Z,15.34
2023-05-18T19:21:54.700Z,15.26
2023-05-18T19:23:18.547Z,15.25
2023-05-18T19:24:41.356Z,15.23
2023-05-18T19:26:03.285Z,15.19
2023-05-18T19:27:27.777Z,15.17
2023-05-18T19:28:50.335Z,15.16
2023-05-18T19:30:19.156Z,15.14
2023-05-18T19:31:43.140Z,15.11
2023-05-18T19:33:05.403Z,15.07
2023-05-18T19:34:28.934Z,15.07
2023-05-18T19:35:51.783Z,15.06
2023-05-18T19:37:15.122Z,15.03
2023-05-18T19:38:38.617Z,15.00
2023-05-18T19:39:59.719Z,14.99
2023-05-18T19:41:24.408Z,14.98
2023-05-18T19:42:45.881Z,14.96
2023-05-18T19:44:08.214Z,14.93
2023-05-18T19:45:32.225Z,14.91
2023-05-18T19:46:54.973Z,14.91
2023-05-18T19:48:27.872Z,14.88
2023-05-18T19:49:52.972Z,14.86
2023-05-18T19:51:15.281Z,14.84
2023-05-18T19:52:37.887Z,14.76
2023-05-18T19:54:01.593Z,14.79
2023-05-18T19:55:23.937Z,14.76
2023-05-18T19:56:46.080Z,14.78
2023-05-18T19:58:08.531Z,14.76
2023-05-18T19:59:30.955Z,14.73
2023-05-18T20:00:54.867Z,14.73
2023-05-18T20:02:17.005Z,14.71
2023-05-18T20:03:43.732Z,14.70
2023-05-18T20:05:07.317Z,14.68
2023-05-18T20:06:49.357Z,14.60
2023-05-18T20:08:15.297Z,14.51
2023-05-18T20:09:40.506Z,14.59
2023-05-18T20:11:07.291Z,14.56
2023-05-18T20:12:38.081Z,14.56
2023-05-18T20:14:01.470Z,14.51
2023-05-18T20:15:24.102Z,14.50
2023-05-18T20:16:46.455Z,14.47
2023-05-18T20:18:09.078Z,14.46
2023-05-18T20:19:31.559Z,14.42
2023-05-18T20:21:00.101Z,14.41
2023-05-18T20:22:22.459Z,14.35
2023-05-18T20:23:47.433Z,14.35
2023-05-18T20:25:12.578Z,14.34
2023-05-18T20:26:34.957Z,14.29
2023-05-18T20:28:00.928Z,14.29
2023-05-18T20:29:23.322Z,14.29
2023-05-18T20:30:44.518Z,14.27
2023-05-18T20:32:07.736Z,14.24
2023-05-18T20:33:30.491Z,14.23
2023-05-18T20:34:58.456Z,14.22
2023-05-18T20:36:23.247Z,14.17
2023-05-18T20:37:45.663Z,14.18
2023-05-18T20:39:07.499Z,14.11
2023-05-18T20:40:32.220Z,14.10
2023-05-18T20:41:55.039Z,14.09
2023-05-18T20:43:21.440Z,14.07
2023-05-18T20:44:46.383Z,14.09
2023-05-18T20:46:08.253Z,14.06
2023-05-18T20:47:32.031Z,14.05
2023-05-18T20:48:55.467Z,14.05
2023-05-18T20:50:18.506Z,14.04
2023-05-18T20:51:40.725Z,14.00
2023-05-18T20:53:05.671Z,14.00
2023-05-18T20:54:27.225Z,14.00
2023-05-18T20:55:51.231Z,13.99
2023-05-18T20:57:13.720Z,13.98
2023-05-18T20:58:42.671Z,13.95
2023-05-18T21:00:05.518Z,13.96
2023-05-18T21:01:28.962Z,13.95
2023-05-18T21:02:52.343Z,13.95
2023-05-18T21:04:14.553Z,13.94
2023-05-18T21:05:38.203Z,13.93
2023-05-18T21:07:01.398Z,13.92
2023-05-18T21:08:23.815Z,13.93
2023-05-18T21:09:46.156Z,13.92
2023-05-18T21:11:11.619Z,13.92
2023-05-18T21:12:33.541Z,13.93
2023-05-18T21:13:56.243Z,13.94
2023-05-18T21:15:18.612Z,13.93
2023-05-18T21:16:48.286Z,13.93
2023-05-18T21:18:10.903Z,13.94
2023-05-18T21:19:32.133Z,13.94
2023-05-18T21:20:57.467Z,13.95
2023-05-18T21:22:20.973Z,13.93
2023-05-18T21:23:43.105Z,13.95
2023-05-18T21:25:06.385Z,13.92
2023-05-18T21:26:30.033Z,13.94
2023-05-18T21:27:51.676Z,13.95
2023-05-18T21:29:13.940Z,13.96
2023-05-18T21:30:36.967Z,13.94
2023-05-18T21:31:59.171Z,13.93
2023-05-18T21:33:23.731Z,13.98
2023-05-18T21:34:46.369Z,13.98
2023-05-18T21:36:10.512Z,13.98
2023-05-18T21:37:33.254Z,13.98
2023-05-18T21:39:11.301Z,13.98
2023-05-18T21:40:33.577Z,13.97
2023-05-18T21:41:56.352Z,13.99
2023-05-18T21:43:18.521Z,13.99
2023-05-18T21:44:39.889Z,13.97
2023-05-18T21:46:02.886Z,13.96
2023-05-18T21:47:28.286Z,13.93
2023-05-18T21:48:50.956Z,13.98
2023-05-18T21:50:12.280Z,13.97
2023-05-18T21:51:37.398Z,13.96
2023-05-18T21:52:58.557Z,13.94
2023-05-18T21:54:20.964Z,13.92
2023-05-18T21:55:43.367Z,13.94
2023-05-18T21:57:07.492Z,13.94
2023-05-18T21:58:29.097Z,13.91
2023-05-18T21:59:51.499Z,13.91
2023-05-18T22:01:12.984Z,13.88
2023-05-18T22:02:35.801Z,13.90
2023-05-18T22:03:57.524Z,13.88
2023-05-18T22:05:20.479Z,13.88
2023-05-18T22:06:44.744Z,13.88
2023-05-18T22:08:08.344Z,13.87
2023-05-18T22:09:31.158Z,13.88
2023-05-18T22:10:52.398Z,13.86
2023-05-18T22:12:16.126Z,13.86
2023-05-18T22:13:37.167Z,13.84
2023-05-18T22:14:59.290Z,13.84
2023-05-18T22:16:19.918Z,13.78
2023-05-18T22:17:42.359Z,13.78
2023-05-18T22:19:05.000Z,13.79
2023-05-18T22:20:26.424Z,13.78
2023-05-18T22:22:05.284Z,13.73
2023-05-18T22:23:38.942Z,13.70
2023-05-18T22:25:11.130Z,13.75
2023-05-18T22:26:37.002Z,13.69
2023-05-18T22:28:00.774Z,13.63
2023-05-18T22:29:23.386Z,13.72
2023-05-18T22:30:46.384Z,13.70
2023-05-18T22:32:09.762Z,13.72
2023-05-18T22:33:32.100Z,13.68
2023-05-18T22:34:56.125Z,13.69
2023-05-18T22:36:21.725Z,13.66
2023-05-18T22:37:44.483Z,13.66
2023-05-18T22:39:06.004Z,13.65
2023-05-18T22:40:28.216Z,13.62
2023-05-18T22:41:49.411Z,13.61
2023-05-18T22:43:13.055Z,13.61
2023-05-18T22:44:46.433Z,13.59
2023-05-18T22:46:09.183Z,13.58
2023-05-18T22:47:30.770Z,13.57
2023-05-18T22:48:57.732Z,13.58